sensor_id;sensor_type;location;lat;lon;timestamp;pressure;altitude;pressure_sealevel;temperature
11849;BMP180;5983;49.966;8.052;2022-12-10T00:01:36;99481.00;;;2.20
11849;BMP180;5983;49.966;8.052;2022-12-10T00:04:04;99481.00;;;2.20
11849;BMP180;5983;49.966;8.052;2022-12-10T00:06:34;99482.00;;;2.20
11849;BMP180;5983;49.966;8.052;2022-12-10T00:09:03;99483.00;;;2.20
11849;BMP180;5983;49.966;8.052;2022-12-10T00:11:31;99496.00;;;2.20
11849;BMP180;5983;49.966;8.052;2022-12-10T00:13:58;99487.00;;;2.20
11849;BMP180;5983;49.966;8.052;2022-12-10T00:16:28;99491.00;;;2.20
11849;BMP180;5983;49.966;8.052;2022-12-10T00:18:56;99496.00;;;2.20
11849;BMP180;5983;49.966;8.052;2022-12-10T00:21:26;99494.00;;;2.10
11849;BMP180;5983;49.966;8.052;2022-12-10T00:23:53;99491.00;;;2.10
11849;BMP180;5983;49.966;8.052;2022-12-10T00:26:25;99498.00;;;2.10
11849;BMP180;5983;49.966;8.052;2022-12-10T00:28:53;99499.00;;;2.10
11849;BMP180;5983;49.966;8.052;2022-12-10T00:31:24;99488.00;;;2.00
11849;BMP180;5983;49.966;8.052;2022-12-10T00:33:53;99492.00;;;2.00
11849;BMP180;5983;49.966;8.052;2022-12-10T00:36:23;99490.00;;;2.00
11849;BMP180;5983;49.966;8.052;2022-12-10T00:38:51;99491.00;;;2.00
11849;BMP180;5983;49.966;8.052;2022-12-10T00:41:19;99487.00;;;2.00
11849;BMP180;5983;49.966;8.052;2022-12-10T00:43:47;99494.00;;;2.00
11849;BMP180;5983;49.966;8.052;2022-12-10T00:46:16;99490.00;;;2.00
11849;BMP180;5983;49.966;8.052;2022-12-10T00:48:45;99495.00;;;2.00
11849;BMP180;5983;49.966;8.052;2022-12-10T00:51:16;99489.00;;;2.00
11849;BMP180;5983;49.966;8.052;2022-12-10T00:53:44;99489.00;;;2.00
11849;BMP180;5983;49.966;8.052;2022-12-10T00:56:14;99488.00;;;2.00
11849;BMP180;5983;49.966;8.052;2022-12-10T00:58:42;99485.00;;;2.00
11849;BMP180;5983;49.966;8.052;2022-12-10T01:01:12;99492.00;;;2.00
11849;BMP180;5983;49.966;8.052;2022-12-10T01:03:40;99499.00;;;2.10
11849;BMP180;5983;49.966;8.052;2022-12-10T01:06:10;99493.00;;;2.10
11849;BMP180;5983;49.966;8.052;2022-12-10T01:08:40;99501.00;;;2.10
11849;BMP180;5983;49.966;8.052;2022-12-10T01:11:08;99487.00;;;2.10
11849;BMP180;5983;49.966;8.052;2022-12-10T01:13:35;99493.00;;;2.10
11849;BMP180;5983;49.966;8.052;2022-12-10T01:16:05;99499.00;;;2.10
11849;BMP180;5983;49.966;8.052;2022-12-10T01:18:32;99506.00;;;2.10
11849;BMP180;5983;49.966;8.052;2022-12-10T01:21:03;99505.00;;;2.00
11849;BMP180;5983;49.966;8.052;2022-12-10T01:23:32;99507.00;;;2.00
11849;BMP180;5983;49.966;8.052;2022-12-10T01:26:04;99513.00;;;2.00
11849;BMP180;5983;49.966;8.052;2022-12-10T01:28:35;99520.00;;;2.00
11849;BMP180;5983;49.966;8.052;2022-12-10T01:34:31;99519.00;;;2.00
11849;BMP180;5983;49.966;8.052;2022-12-10T01:37:01;99534.00;;;2.00
11849;BMP180;5983;49.966;8.052;2022-12-10T01:39:28;99531.00;;;2.00
11849;BMP180;5983;49.966;8.052;2022-12-10T01:41:59;99536.00;;;2.00
11849;BMP180;5983;49.966;8.052;2022-12-10T01:45:08;99542.00;;;2.00
11849;BMP180;5983;49.966;8.052;2022-12-10T01:47:36;99540.00;;;2.00
11849;BMP180;5983;49.966;8.052;2022-12-10T01:50:06;99547.00;;;1.90
11849;BMP180;5983;49.966;8.052;2022-12-10T01:52:34;99541.00;;;1.90
11849;BMP180;5983;49.966;8.052;2022-12-10T01:55:01;99544.00;;;1.90
11849;BMP180;5983;49.966;8.052;2022-12-10T01:57:29;99546.00;;;2.00
11849;BMP180;5983;49.966;8.052;2022-12-10T01:59:58;99549.00;;;1.90
11849;BMP180;5983;49.966;8.052;2022-12-10T02:02:38;99542.00;;;1.90
11849;BMP180;5983;49.966;8.052;2022-12-10T02:05:30;99544.00;;;1.90
11849;BMP180;5983;49.966;8.052;2022-12-10T02:08:08;99536.00;;;1.90
11849;BMP180;5983;49.966;8.052;2022-12-10T02:10:53;99540.00;;;1.90
11849;BMP180;5983;49.966;8.052;2022-12-10T02:13:31;99546.00;;;1.90
11849;BMP180;5983;49.966;8.052;2022-12-10T02:16:07;99546.00;;;1.90
11849;BMP180;5983;49.966;8.052;2022-12-10T02:18:42;99543.00;;;1.90
11849;BMP180;5983;49.966;8.052;2022-12-10T02:21:17;99543.00;;;2.00
11849;BMP180;5983;49.966;8.052;2022-12-10T02:23:50;99543.00;;;2.00
11849;BMP180;5983;49.966;8.052;2022-12-10T02:26:24;99545.00;;;2.00
11849;BMP180;5983;49.966;8.052;2022-12-10T02:29:07;99537.00;;;2.00
11849;BMP180;5983;49.966;8.052;2022-12-10T02:31:42;99531.00;;;1.90
11849;BMP180;5983;49.966;8.052;2022-12-10T02:34:13;99537.00;;;2.00
11849;BMP180;5983;49.966;8.052;2022-12-10T02:36:44;99539.00;;;2.00
11849;BMP180;5983;49.966;8.052;2022-12-10T02:39:19;99536.00;;;2.00
11849;BMP180;5983;49.966;8.052;2022-12-10T02:41:52;99544.00;;;2.00
11849;BMP180;5983;49.966;8.052;2022-12-10T02:44:23;99539.00;;;2.00
11849;BMP180;5983;49.966;8.052;2022-12-10T02:46:55;99535.00;;;2.00
11849;BMP180;5983;49.966;8.052;2022-12-10T02:53:04;99538.00;;;2.00
11849;BMP180;5983;49.966;8.052;2022-12-10T02:55:47;99540.00;;;2.00
11849;BMP180;5983;49.966;8.052;2022-12-10T02:58:28;99538.00;;;2.00
11849;BMP180;5983;49.966;8.052;2022-12-10T03:01:07;99539.00;;;2.00
11849;BMP180;5983;49.966;8.052;2022-12-10T03:03:48;99544.00;;;2.00
11849;BMP180;5983;49.966;8.052;2022-12-10T03:06:22;99549.00;;;2.00
11849;BMP180;5983;49.966;8.052;2022-12-10T03:08:58;99552.00;;;2.00
11849;BMP180;5983;49.966;8.052;2022-12-10T03:11:26;99549.00;;;1.90
11849;BMP180;5983;49.966;8.052;2022-12-10T03:13:59;99539.00;;;1.90
11849;BMP180;5983;49.966;8.052;2022-12-10T03:16:35;99535.00;;;1.90
11849;BMP180;5983;49.966;8.052;2022-12-10T03:19:06;99543.00;;;1.90
11849;BMP180;5983;49.966;8.052;2022-12-10T03:21:37;99541.00;;;1.90
11849;BMP180;5983;49.966;8.052;2022-12-10T03:24:07;99531.00;;;1.90
11849;BMP180;5983;49.966;8.052;2022-12-10T03:26:35;99549.00;;;1.90
11849;BMP180;5983;49.966;8.052;2022-12-10T03:29:08;99535.00;;;1.80
11849;BMP180;5983;49.966;8.052;2022-12-10T03:31:39;99539.00;;;1.80
11849;BMP180;5983;49.966;8.052;2022-12-10T03:34:09;99536.00;;;1.70
11849;BMP180;5983;49.966;8.052;2022-12-10T03:36:37;99537.00;;;1.70
11849;BMP180;5983;49.966;8.052;2022-12-10T03:39:05;99532.00;;;1.70
11849;BMP180;5983;49.966;8.052;2022-12-10T03:41:33;99546.00;;;1.70
11849;BMP180;5983;49.966;8.052;2022-12-10T03:44:00;99533.00;;;1.60
11849;BMP180;5983;49.966;8.052;2022-12-10T03:46:30;99528.00;;;1.60
11849;BMP180;5983;49.966;8.052;2022-12-10T03:49:00;99527.00;;;1.50
11849;BMP180;5983;49.966;8.052;2022-12-10T03:51:27;99540.00;;;1.40
11849;BMP180;5983;49.966;8.052;2022-12-10T03:53:54;99537.00;;;1.40
11849;BMP180;5983;49.966;8.052;2022-12-10T03:56:22;99546.00;;;1.30
11849;BMP180;5983;49.966;8.052;2022-12-10T03:58:49;99553.00;;;1.20
11849;BMP180;5983;49.966;8.052;2022-12-10T04:01:16;99542.00;;;1.10
11849;BMP180;5983;49.966;8.052;2022-12-10T04:03:44;99563.00;;;1.10
11849;BMP180;5983;49.966;8.052;2022-12-10T04:06:17;99570.00;;;1.10
11849;BMP180;5983;49.966;8.052;2022-12-10T04:08:45;99553.00;;;1.00
11849;BMP180;5983;49.966;8.052;2022-12-10T04:11:14;99553.00;;;0.90
11849;BMP180;5983;49.966;8.052;2022-12-10T04:13:42;99557.00;;;0.90
11849;BMP180;5983;49.966;8.052;2022-12-10T04:16:28;99562.00;;;0.90
11849;BMP180;5983;49.966;8.052;2022-12-10T04:18:57;99561.00;;;0.80
11849;BMP180;5983;49.966;8.052;2022-12-10T04:21:28;99551.00;;;0.80
11849;BMP180;5983;49.966;8.052;2022-12-10T04:24:16;99561.00;;;0.70
11849;BMP180;5983;49.966;8.052;2022-12-10T04:27:06;99557.00;;;0.70
11849;BMP180;5983;49.966;8.052;2022-12-10T04:29:33;99560.00;;;0.70
11849;BMP180;5983;49.966;8.052;2022-12-10T04:32:00;99566.00;;;0.70
11849;BMP180;5983;49.966;8.052;2022-12-10T04:34:27;99568.00;;;0.60
11849;BMP180;5983;49.966;8.052;2022-12-10T04:36:57;99567.00;;;0.70
11849;BMP180;5983;49.966;8.052;2022-12-10T04:39:25;99563.00;;;0.60
11849;BMP180;5983;49.966;8.052;2022-12-10T04:41:52;99578.00;;;0.60
11849;BMP180;5983;49.966;8.052;2022-12-10T04:44:20;99562.00;;;0.60
11849;BMP180;5983;49.966;8.052;2022-12-10T04:46:47;99556.00;;;0.70
11849;BMP180;5983;49.966;8.052;2022-12-10T04:49:15;99553.00;;;0.60
11849;BMP180;5983;49.966;8.052;2022-12-10T04:51:42;99556.00;;;0.60
11849;BMP180;5983;49.966;8.052;2022-12-10T04:54:12;99551.00;;;0.60
11849;BMP180;5983;49.966;8.052;2022-12-10T04:56:39;99557.00;;;0.50
11849;BMP180;5983;49.966;8.052;2022-12-10T04:59:07;99560.00;;;0.50
11849;BMP180;5983;49.966;8.052;2022-12-10T05:01:35;99565.00;;;0.50
11849;BMP180;5983;49.966;8.052;2022-12-10T05:04:06;99571.00;;;0.50
11849;BMP180;5983;49.966;8.052;2022-12-10T05:06:34;99575.00;;;0.40
11849;BMP180;5983;49.966;8.052;2022-12-10T05:09:01;99571.00;;;0.40
11849;BMP180;5983;49.966;8.052;2022-12-10T05:11:31;99575.00;;;0.30
11849;BMP180;5983;49.966;8.052;2022-12-10T05:13:59;99575.00;;;0.30
11849;BMP180;5983;49.966;8.052;2022-12-10T05:16:30;99573.00;;;0.20
11849;BMP180;5983;49.966;8.052;2022-12-10T05:18:58;99586.00;;;0.20
11849;BMP180;5983;49.966;8.052;2022-12-10T05:21:28;99585.00;;;0.20
11849;BMP180;5983;49.966;8.052;2022-12-10T05:24:17;99585.00;;;0.10
11849;BMP180;5983;49.966;8.052;2022-12-10T05:26:45;99593.00;;;0.10
11849;BMP180;5983;49.966;8.052;2022-12-10T05:29:12;99589.00;;;0.10
11849;BMP180;5983;49.966;8.052;2022-12-10T05:31:40;99597.00;;;0.10
11849;BMP180;5983;49.966;8.052;2022-12-10T05:34:06;99591.00;;;0.00
11849;BMP180;5983;49.966;8.052;2022-12-10T05:36:35;99594.00;;;0.00
11849;BMP180;5983;49.966;8.052;2022-12-10T05:39:02;99600.00;;;-0.10
11849;BMP180;5983;49.966;8.052;2022-12-10T05:41:33;99596.00;;;-0.10
11849;BMP180;5983;49.966;8.052;2022-12-10T05:44:02;99594.00;;;-0.10
11849;BMP180;5983;49.966;8.052;2022-12-10T05:46:33;99604.00;;;-0.10
11849;BMP180;5983;49.966;8.052;2022-12-10T05:49:03;99599.00;;;-0.10
11849;BMP180;5983;49.966;8.052;2022-12-10T05:51:32;99604.00;;;-0.20
11849;BMP180;5983;49.966;8.052;2022-12-10T05:54:01;99605.00;;;-0.10
11849;BMP180;5983;49.966;8.052;2022-12-10T05:56:29;99607.00;;;-0.10
11849;BMP180;5983;49.966;8.052;2022-12-10T05:58:59;99611.00;;;-0.20
11849;BMP180;5983;49.966;8.052;2022-12-10T06:01:30;99603.00;;;-0.20
11849;BMP180;5983;49.966;8.052;2022-12-10T06:03:59;99613.00;;;-0.20
11849;BMP180;5983;49.966;8.052;2022-12-10T06:06:29;99603.00;;;-0.30
11849;BMP180;5983;49.966;8.052;2022-12-10T06:08:57;99609.00;;;-0.30
11849;BMP180;5983;49.966;8.052;2022-12-10T06:11:25;99609.00;;;-0.30
11849;BMP180;5983;49.966;8.052;2022-12-10T06:13:53;99624.00;;;-0.30
11849;BMP180;5983;49.966;8.052;2022-12-10T06:16:21;99624.00;;;-0.40
11849;BMP180;5983;49.966;8.052;2022-12-10T06:18:50;99628.00;;;-0.40
11849;BMP180;5983;49.966;8.052;2022-12-10T06:21:19;99625.00;;;-0.40
11849;BMP180;5983;49.966;8.052;2022-12-10T06:23:47;99624.00;;;-0.40
11849;BMP180;5983;49.966;8.052;2022-12-10T06:26:19;99629.00;;;-0.40
11849;BMP180;5983;49.966;8.052;2022-12-10T06:28:47;99614.00;;;-0.50
11849;BMP180;5983;49.966;8.052;2022-12-10T06:31:15;99628.00;;;-0.50
11849;BMP180;5983;49.966;8.052;2022-12-10T06:33:43;99634.00;;;-0.50
11849;BMP180;5983;49.966;8.052;2022-12-10T06:36:14;99630.00;;;-0.60
11849;BMP180;5983;49.966;8.052;2022-12-10T06:38:42;99641.00;;;-0.60
11849;BMP180;5983;49.966;8.052;2022-12-10T06:41:13;99643.00;;;-0.60
11849;BMP180;5983;49.966;8.052;2022-12-10T06:43:40;99649.00;;;-0.70
11849;BMP180;5983;49.966;8.052;2022-12-10T06:46:09;99640.00;;;-0.70
11849;BMP180;5983;49.966;8.052;2022-12-10T06:48:36;99653.00;;;-0.70
11849;BMP180;5983;49.966;8.052;2022-12-10T06:51:04;99654.00;;;-0.70
11849;BMP180;5983;49.966;8.052;2022-12-10T06:53:34;99659.00;;;-0.80
11849;BMP180;5983;49.966;8.052;2022-12-10T06:56:03;99657.00;;;-0.70
11849;BMP180;5983;49.966;8.052;2022-12-10T06:58:33;99657.00;;;-0.70
11849;BMP180;5983;49.966;8.052;2022-12-10T07:01:05;99669.00;;;-0.70
11849;BMP180;5983;49.966;8.052;2022-12-10T07:03:32;99667.00;;;-0.70
11849;BMP180;5983;49.966;8.052;2022-12-10T07:05:59;99675.00;;;-0.80
11849;BMP180;5983;49.966;8.052;2022-12-10T07:08:27;99667.00;;;-0.80
11849;BMP180;5983;49.966;8.052;2022-12-10T07:10:56;99680.00;;;-0.80
11849;BMP180;5983;49.966;8.052;2022-12-10T07:13:23;99673.00;;;-0.80
11849;BMP180;5983;49.966;8.052;2022-12-10T07:15:51;99670.00;;;-0.80
11849;BMP180;5983;49.966;8.052;2022-12-10T07:18:17;99670.00;;;-0.90
11849;BMP180;5983;49.966;8.052;2022-12-10T07:20:44;99688.00;;;-0.80
11849;BMP180;5983;49.966;8.052;2022-12-10T07:23:11;99675.00;;;-0.80
11849;BMP180;5983;49.966;8.052;2022-12-10T07:25:38;99677.00;;;-0.90
11849;BMP180;5983;49.966;8.052;2022-12-10T07:28:07;99685.00;;;-0.90
11849;BMP180;5983;49.966;8.052;2022-12-10T07:30:34;99686.00;;;-1.00
11849;BMP180;5983;49.966;8.052;2022-12-10T07:33:01;99676.00;;;-1.00
11849;BMP180;5983;49.966;8.052;2022-12-10T07:35:28;99685.00;;;-1.00
11849;BMP180;5983;49.966;8.052;2022-12-10T07:37:55;99691.00;;;-0.90
11849;BMP180;5983;49.966;8.052;2022-12-10T07:40:22;99683.00;;;-0.90
11849;BMP180;5983;49.966;8.052;2022-12-10T07:42:49;99697.00;;;-0.90
11849;BMP180;5983;49.966;8.052;2022-12-10T07:45:18;99683.00;;;-0.90
11849;BMP180;5983;49.966;8.052;2022-12-10T07:47:45;99690.00;;;-0.90
11849;BMP180;5983;49.966;8.052;2022-12-10T07:50:12;99687.00;;;-0.80
11849;BMP180;5983;49.966;8.052;2022-12-10T07:52:38;99691.00;;;-0.80
11849;BMP180;5983;49.966;8.052;2022-12-10T07:55:06;99698.00;;;-0.80
11849;BMP180;5983;49.966;8.052;2022-12-10T07:57:34;99690.00;;;-0.70
11849;BMP180;5983;49.966;8.052;2022-12-10T08:00:00;99693.00;;;-0.70
11849;BMP180;5983;49.966;8.052;2022-12-10T08:02:29;99697.00;;;-0.70
11849;BMP180;5983;49.966;8.052;2022-12-10T08:04:56;99696.00;;;-0.60
11849;BMP180;5983;49.966;8.052;2022-12-10T08:07:23;99699.00;;;-0.60
11849;BMP180;5983;49.966;8.052;2022-12-10T08:09:50;99705.00;;;-0.60
11849;BMP180;5983;49.966;8.052;2022-12-10T08:12:17;99709.00;;;-0.50
11849;BMP180;5983;49.966;8.052;2022-12-10T08:14:44;99710.00;;;-0.40
11849;BMP180;5983;49.966;8.052;2022-12-10T08:17:11;99714.00;;;-0.30
11849;BMP180;5983;49.966;8.052;2022-12-10T08:19:39;99708.00;;;-0.20
11849;BMP180;5983;49.966;8.052;2022-12-10T08:22:07;99712.00;;;-0.10
11849;BMP180;5983;49.966;8.052;2022-12-10T08:24:33;99713.00;;;0.00
11849;BMP180;5983;49.966;8.052;2022-12-10T08:27:01;99703.00;;;0.20
11849;BMP180;5983;49.966;8.052;2022-12-10T08:29:28;99722.00;;;0.40
11849;BMP180;5983;49.966;8.052;2022-12-10T08:31:55;99720.00;;;0.60
11849;BMP180;5983;49.966;8.052;2022-12-10T08:34:22;99728.00;;;0.70
11849;BMP180;5983;49.966;8.052;2022-12-10T08:36:50;99718.00;;;1.00
11849;BMP180;5983;49.966;8.052;2022-12-10T08:39:17;99737.00;;;1.20
11849;BMP180;5983;49.966;8.052;2022-12-10T08:41:45;99732.00;;;1.40
11849;BMP180;5983;49.966;8.052;2022-12-10T08:44:12;99732.00;;;1.80
11849;BMP180;5983;49.966;8.052;2022-12-10T08:46:40;99733.00;;;2.30
11849;BMP180;5983;49.966;8.052;2022-12-10T08:49:07;99739.00;;;2.90
11849;BMP180;5983;49.966;8.052;2022-12-10T08:51:35;99738.00;;;3.80
11849;BMP180;5983;49.966;8.052;2022-12-10T08:54:03;99749.00;;;4.80
11849;BMP180;5983;49.966;8.052;2022-12-10T08:56:31;99754.00;;;5.80
11849;BMP180;5983;49.966;8.052;2022-12-10T08:58:58;99757.00;;;6.40
11849;BMP180;5983;49.966;8.052;2022-12-10T09:01:25;99749.00;;;6.30
11849;BMP180;5983;49.966;8.052;2022-12-10T09:03:52;99754.00;;;6.10
11849;BMP180;5983;49.966;8.052;2022-12-10T09:06:22;99770.00;;;6.80
11849;BMP180;5983;49.966;8.052;2022-12-10T09:08:51;99770.00;;;7.70
11849;BMP180;5983;49.966;8.052;2022-12-10T09:11:22;99772.00;;;8.50
11849;BMP180;5983;49.966;8.052;2022-12-10T09:13:50;99767.00;;;9.40
11849;BMP180;5983;49.966;8.052;2022-12-10T09:16:17;99770.00;;;10.20
11849;BMP180;5983;49.966;8.052;2022-12-10T09:18:44;99776.00;;;10.80
11849;BMP180;5983;49.966;8.052;2022-12-10T09:21:13;99788.00;;;10.90
11849;BMP180;5983;49.966;8.052;2022-12-10T09:23:41;99788.00;;;10.60
11849;BMP180;5983;49.966;8.052;2022-12-10T09:26:11;99776.00;;;9.80
11849;BMP180;5983;49.966;8.052;2022-12-10T09:28:41;99787.00;;;9.10
11849;BMP180;5983;49.966;8.052;2022-12-10T09:31:09;99774.00;;;8.50
11849;BMP180;5983;49.966;8.052;2022-12-10T09:33:38;99780.00;;;8.20
11849;BMP180;5983;49.966;8.052;2022-12-10T09:36:07;99782.00;;;8.10
11849;BMP180;5983;49.966;8.052;2022-12-10T09:38:36;99782.00;;;8.10
11849;BMP180;5983;49.966;8.052;2022-12-10T09:41:27;99780.00;;;8.00
11849;BMP180;5983;49.966;8.052;2022-12-10T09:44:08;99787.00;;;7.90
11849;BMP180;5983;49.966;8.052;2022-12-10T09:46:48;99787.00;;;7.70
11849;BMP180;5983;49.966;8.052;2022-12-10T09:49:30;99772.00;;;7.10
11849;BMP180;5983;49.966;8.052;2022-12-10T09:52:04;99768.00;;;6.50
11849;BMP180;5983;49.966;8.052;2022-12-10T09:54:38;99764.00;;;6.10
11849;BMP180;5983;49.966;8.052;2022-12-10T09:57:14;99773.00;;;5.70
11849;BMP180;5983;49.966;8.052;2022-12-10T09:59:48;99774.00;;;5.50
11849;BMP180;5983;49.966;8.052;2022-12-10T10:02:23;99769.00;;;5.30
11849;BMP180;5983;49.966;8.052;2022-12-10T10:04:56;99770.00;;;5.10
11849;BMP180;5983;49.966;8.052;2022-12-10T10:07:30;99770.00;;;5.00
11849;BMP180;5983;49.966;8.052;2022-12-10T10:10:03;99772.00;;;4.80
11849;BMP180;5983;49.966;8.052;2022-12-10T10:12:34;99784.00;;;4.60
11849;BMP180;5983;49.966;8.052;2022-12-10T10:15:14;99784.00;;;4.40
11849;BMP180;5983;49.966;8.052;2022-12-10T10:17:43;99779.00;;;4.30
11849;BMP180;5983;49.966;8.052;2022-12-10T10:20:13;99784.00;;;4.20
11849;BMP180;5983;49.966;8.052;2022-12-10T10:22:41;99785.00;;;4.10
11849;BMP180;5983;49.966;8.052;2022-12-10T10:25:14;99778.00;;;4.00
11849;BMP180;5983;49.966;8.052;2022-12-10T10:27:41;99783.00;;;3.90
11849;BMP180;5983;49.966;8.052;2022-12-10T10:30:17;99777.00;;;3.80
11849;BMP180;5983;49.966;8.052;2022-12-10T10:32:49;99776.00;;;3.80
11849;BMP180;5983;49.966;8.052;2022-12-10T10:35:28;99774.00;;;3.80
11849;BMP180;5983;49.966;8.052;2022-12-10T10:38:00;99780.00;;;3.80
11849;BMP180;5983;49.966;8.052;2022-12-10T10:40:32;99778.00;;;3.90
11849;BMP180;5983;49.966;8.052;2022-12-10T10:43:01;99781.00;;;3.80
11849;BMP180;5983;49.966;8.052;2022-12-10T10:45:36;99782.00;;;3.90
11849;BMP180;5983;49.966;8.052;2022-12-10T10:48:11;99782.00;;;3.90
11849;BMP180;5983;49.966;8.052;2022-12-10T10:50:41;99782.00;;;4.00
11849;BMP180;5983;49.966;8.052;2022-12-10T10:53:32;99784.00;;;4.10
11849;BMP180;5983;49.966;8.052;2022-12-10T10:56:08;99781.00;;;4.20
11849;BMP180;5983;49.966;8.052;2022-12-10T10:58:50;99776.00;;;4.50
11849;BMP180;5983;49.966;8.052;2022-12-10T11:01:20;99779.00;;;4.60
11849;BMP180;5983;49.966;8.052;2022-12-10T11:03:54;99787.00;;;4.70
11849;BMP180;5983;49.966;8.052;2022-12-10T11:06:22;99783.00;;;4.80
11849;BMP180;5983;49.966;8.052;2022-12-10T11:08:54;99785.00;;;5.90
11849;BMP180;5983;49.966;8.052;2022-12-10T11:11:37;99780.00;;;7.40
11849;BMP180;5983;49.966;8.052;2022-12-10T11:14:23;99796.00;;;10.10
11849;BMP180;5983;49.966;8.052;2022-12-10T11:17:02;99794.00;;;12.40
11849;BMP180;5983;49.966;8.052;2022-12-10T11:19:29;99797.00;;;14.00
11849;BMP180;5983;49.966;8.052;2022-12-10T11:22:16;99803.00;;;15.10
11849;BMP180;5983;49.966;8.052;2022-12-10T11:24:46;99801.00;;;15.00
11849;BMP180;5983;49.966;8.052;2022-12-10T11:27:27;99808.00;;;15.70
11849;BMP180;5983;49.966;8.052;2022-12-10T11:30:03;99819.00;;;16.60
11849;BMP180;5983;49.966;8.052;2022-12-10T11:32:49;99823.00;;;15.60
11849;BMP180;5983;49.966;8.052;2022-12-10T11:35:37;99818.00;;;14.00
11849;BMP180;5983;49.966;8.052;2022-12-10T11:38:21;99806.00;;;12.60
11849;BMP180;5983;49.966;8.052;2022-12-10T11:40:55;99805.00;;;11.60
11849;BMP180;5983;49.966;8.052;2022-12-10T11:43:50;99804.00;;;11.60
11849;BMP180;5983;49.966;8.052;2022-12-10T11:46:39;99796.00;;;11.10
11849;BMP180;5983;49.966;8.052;2022-12-10T11:49:23;99797.00;;;11.90
11849;BMP180;5983;49.966;8.052;2022-12-10T11:51:59;99802.00;;;12.10
11849;BMP180;5983;49.966;8.052;2022-12-10T11:54:46;99813.00;;;11.60
11849;BMP180;5983;49.966;8.052;2022-12-10T11:57:28;99800.00;;;10.40
11849;BMP180;5983;49.966;8.052;2022-12-10T12:00:03;99797.00;;;9.50
11849;BMP180;5983;49.966;8.052;2022-12-10T12:03:04;99793.00;;;8.60
11849;BMP180;5983;49.966;8.052;2022-12-10T12:05:51;99811.00;;;10.30
11849;BMP180;5983;49.966;8.052;2022-12-10T12:08:30;99812.00;;;12.50
11849;BMP180;5983;49.966;8.052;2022-12-10T12:11:21;99822.00;;;14.20
11849;BMP180;5983;49.966;8.052;2022-12-10T12:13:57;99830.00;;;15.40
11849;BMP180;5983;49.966;8.052;2022-12-10T12:16:31;99846.00;;;16.20
11849;BMP180;5983;49.966;8.052;2022-12-10T12:19:04;99843.00;;;16.70
11849;BMP180;5983;49.966;8.052;2022-12-10T12:21:33;99841.00;;;17.20
11849;BMP180;5983;49.966;8.052;2022-12-10T12:24:09;99843.00;;;17.70
11849;BMP180;5983;49.966;8.052;2022-12-10T12:26:41;99851.00;;;18.10
11849;BMP180;5983;49.966;8.052;2022-12-10T12:29:18;99845.00;;;18.40
11849;BMP180;5983;49.966;8.052;2022-12-10T12:31:54;99847.00;;;18.10
11849;BMP180;5983;49.966;8.052;2022-12-10T12:34:29;99849.00;;;18.10
11849;BMP180;5983;49.966;8.052;2022-12-10T12:37:08;99840.00;;;18.20
11849;BMP180;5983;49.966;8.052;2022-12-10T12:39:47;99846.00;;;17.10
11849;BMP180;5983;49.966;8.052;2022-12-10T12:42:23;99844.00;;;16.80
11849;BMP180;5983;49.966;8.052;2022-12-10T12:45:03;99847.00;;;16.80
11849;BMP180;5983;49.966;8.052;2022-12-10T12:47:43;99847.00;;;16.50
11849;BMP180;5983;49.966;8.052;2022-12-10T12:50:25;99843.00;;;16.40
11849;BMP180;5983;49.966;8.052;2022-12-10T12:52:58;99844.00;;;15.90
11849;BMP180;5983;49.966;8.052;2022-12-10T12:55:33;99842.00;;;15.30
11849;BMP180;5983;49.966;8.052;2022-12-10T12:58:17;99838.00;;;14.50
11849;BMP180;5983;49.966;8.052;2022-12-10T13:00:52;99843.00;;;13.40
11849;BMP180;5983;49.966;8.052;2022-12-10T13:03:36;99841.00;;;12.20
11849;BMP180;5983;49.966;8.052;2022-12-10T13:06:22;99832.00;;;11.00
11849;BMP180;5983;49.966;8.052;2022-12-10T13:08:58;99831.00;;;10.50
11849;BMP180;5983;49.966;8.052;2022-12-10T13:11:44;99835.00;;;10.10
11849;BMP180;5983;49.966;8.052;2022-12-10T13:14:29;99836.00;;;9.60
11849;BMP180;5983;49.966;8.052;2022-12-10T13:17:22;99842.00;;;9.40
11849;BMP180;5983;49.966;8.052;2022-12-10T13:19:53;99843.00;;;9.00
11849;BMP180;5983;49.966;8.052;2022-12-10T13:22:54;99843.00;;;8.20
11849;BMP180;5983;49.966;8.052;2022-12-10T13:25:40;99849.00;;;7.60
11849;BMP180;5983;49.966;8.052;2022-12-10T13:28:26;99854.00;;;7.00
11849;BMP180;5983;49.966;8.052;2022-12-10T13:31:18;99844.00;;;6.60
11849;BMP180;5983;49.966;8.052;2022-12-10T13:33:52;99846.00;;;6.40
11849;BMP180;5983;49.966;8.052;2022-12-10T13:36:25;99849.00;;;6.20
11849;BMP180;5983;49.966;8.052;2022-12-10T13:39:12;99858.00;;;6.00
11849;BMP180;5983;49.966;8.052;2022-12-10T13:42:20;99852.00;;;5.80
11849;BMP180;5983;49.966;8.052;2022-12-10T13:44:59;99861.00;;;5.70
11849;BMP180;5983;49.966;8.052;2022-12-10T13:47:42;99857.00;;;5.70
11849;BMP180;5983;49.966;8.052;2022-12-10T13:50:19;99860.00;;;5.70
11849;BMP180;5983;49.966;8.052;2022-12-10T13:53:05;99878.00;;;5.60
11849;BMP180;5983;49.966;8.052;2022-12-10T13:55:41;99874.00;;;5.60
11849;BMP180;5983;49.966;8.052;2022-12-10T13:58:31;99884.00;;;5.50
11849;BMP180;5983;49.966;8.052;2022-12-10T14:01:12;99873.00;;;5.40
11849;BMP180;5983;49.966;8.052;2022-12-10T14:04:05;99880.00;;;5.40
11849;BMP180;5983;49.966;8.052;2022-12-10T14:06:39;99880.00;;;5.30
11849;BMP180;5983;49.966;8.052;2022-12-10T14:09:14;99871.00;;;5.20
11849;BMP180;5983;49.966;8.052;2022-12-10T14:11:51;99880.00;;;5.20
11849;BMP180;5983;49.966;8.052;2022-12-10T14:14:27;99883.00;;;5.10
11849;BMP180;5983;49.966;8.052;2022-12-10T14:16:59;99896.00;;;5.00
11849;BMP180;5983;49.966;8.052;2022-12-10T14:19:28;99893.00;;;4.90
11849;BMP180;5983;49.966;8.052;2022-12-10T14:21:56;99889.00;;;4.80
11849;BMP180;5983;49.966;8.052;2022-12-10T14:24:30;99899.00;;;4.60
11849;BMP180;5983;49.966;8.052;2022-12-10T14:27:05;99894.00;;;4.60
11849;BMP180;5983;49.966;8.052;2022-12-10T14:29:36;99893.00;;;4.50
11849;BMP180;5983;49.966;8.052;2022-12-10T14:32:04;99895.00;;;4.40
11849;BMP180;5983;49.966;8.052;2022-12-10T14:34:32;99896.00;;;4.30
11849;BMP180;5983;49.966;8.052;2022-12-10T14:37:03;99903.00;;;4.20
11849;BMP180;5983;49.966;8.052;2022-12-10T14:39:33;99911.00;;;4.10
11849;BMP180;5983;49.966;8.052;2022-12-10T14:42:09;99921.00;;;4.10
11849;BMP180;5983;49.966;8.052;2022-12-10T14:44:40;99921.00;;;4.00
11849;BMP180;5983;49.966;8.052;2022-12-10T14:47:15;99923.00;;;4.00
11849;BMP180;5983;49.966;8.052;2022-12-10T14:49:45;99915.00;;;3.90
11849;BMP180;5983;49.966;8.052;2022-12-10T14:52:15;99914.00;;;3.80
11849;BMP180;5983;49.966;8.052;2022-12-10T14:54:43;99919.00;;;3.80
11849;BMP180;5983;49.966;8.052;2022-12-10T14:57:22;99921.00;;;3.70
11849;BMP180;5983;49.966;8.052;2022-12-10T15:00:02;99924.00;;;3.60
11849;BMP180;5983;49.966;8.052;2022-12-10T15:02:34;99917.00;;;3.50
11849;BMP180;5983;49.966;8.052;2022-12-10T15:05:02;99931.00;;;3.40
11849;BMP180;5983;49.966;8.052;2022-12-10T15:07:33;99939.00;;;3.30
11849;BMP180;5983;49.966;8.052;2022-12-10T15:10:07;99945.00;;;3.20